Airfield :
LOGIN :

Register | Disclaimer

   EN    FR    IT 

 










Legend :    VFR   Marginal VFR   IFR   Intensive IFR   Very Intensive IFR
Visi :
Ceiling :
>= 8 km
>= 3000ft
5 to 8 km
1000 to 3000 ft
1500m to 5 km
500 to 1000 ft
800 to 1500m
200 to 500 ft
< 800m
< 200 ft
Symbols :   Thunderstorms  Fog  Heavy snow  Heavy precipitations  Wind > 20 kt
SIGMETs :     Misc.  Thunderstorms  Icing  Turbulence  Mountain Waves  Volcanic Ashes







- Airport Elevation : 266 ft
- IATA code : NCL
- Download approach charts


EGNT - Newcastle

CURRENT METAR :
  • 222050Z VRB03KT 3000 BR FEW004 BKN020 14/14 Q1002

EXPIRED METARs :
  • 222020Z VRB02KT 2500 BR FEW004 BKN016 14/14 Q1002
  • 221950Z VRB01KT 3000 -RA FEW008 BKN023 14/14 Q1002
  • 221920Z 09002KT 3000 RA FEW005 BKN022 14/14 Q1002
  • 221850Z 00000KT 4000 SHRA SCT003 BKN027 14/14 Q1002
  • 221820Z 06002KT 4500 BR FEW003 OVC037 14/14 Q1001

TAF TAF EGNT
Valid from the 22 at 18:00 until the 23 at 18:00 UTC


221702Z 2218/2318 15005KT 9999 FEW010 SCT025
TEMPO 2218/2224 6000 RA
PROB40
TEMPO 2218/2222 3000 +SHRA BKN014 BKN025CB
BECMG 2300/2303 4000 BR BKN004
PROB40 2302/2309 0300 FG BKN001
BECMG 2309/2312 23010KT 9999 NSW FEW020
BECMG 2315/2318 14006KT
ATIS : +44 191 214 3400
No reported NOTAMs for that airfield.



MET'MAP, your aeronautical weather chart ! - Copyright ORBIFLY December 2007 - Disclaimer

ORBIFLY MET'MAP TEAM :

Programming & Development : Alexandra Zaïnal
Concept & Development : Baudouin d'Aumeries
Co-Development & Prog : Marc-Olivier Méhu
Technical & hardware support : Manuel Goepfert

Contact : metmap@orbifly.com




SOURCES & CREDITS :

   NOAA